createdAt,value
2022-12-09T00:00:13.144Z,24.22
2022-12-09T00:01:17.874Z,24.22
2022-12-09T00:02:19.546Z,24.23
2022-12-09T00:03:23.797Z,24.22
2022-12-09T00:04:25.899Z,24.22
2022-12-09T00:05:28.161Z,24.21
2022-12-09T00:06:30.870Z,24.22
2022-12-09T00:07:35.264Z,24.20
2022-12-09T00:08:37.035Z,24.20
2022-12-09T00:09:38.772Z,24.20
2022-12-09T00:10:43.846Z,24.20
2022-12-09T00:11:45.768Z,24.20
2022-12-09T00:12:47.430Z,24.17
2022-12-09T00:13:50.315Z,24.18
2022-12-09T00:14:52.050Z,24.16
2022-12-09T00:15:53.674Z,24.17
2022-12-09T00:16:55.399Z,24.16
2022-12-09T00:17:57.098Z,24.17
2022-12-09T00:18:58.706Z,24.16
2022-12-09T00:20:00.737Z,24.16
2022-12-09T00:21:18.457Z,24.12
2022-12-09T00:22:20.059Z,24.16
2022-12-09T00:23:21.625Z,24.16
2022-12-09T00:24:23.440Z,24.15
2022-12-09T00:25:25.164Z,24.17
2022-12-09T00:26:28.375Z,24.17
2022-12-09T00:27:30.208Z,24.17
2022-12-09T00:28:31.904Z,24.14
2022-12-09T00:29:33.764Z,24.14
2022-12-09T00:30:35.975Z,24.13
2022-12-09T00:31:39.350Z,24.14
2022-12-09T00:32:41.384Z,24.17
2022-12-09T00:33:43.442Z,24.16
2022-12-09T00:34:54.477Z,24.14
2022-12-09T00:35:56.494Z,24.14
2022-12-09T00:36:58.113Z,24.13
2022-12-09T00:37:59.722Z,24.12
2022-12-09T00:39:01.580Z,24.12
2022-12-09T00:40:04.357Z,24.12
2022-12-09T00:41:07.008Z,24.13
2022-12-09T00:42:08.870Z,24.12
2022-12-09T00:43:10.438Z,24.13
2022-12-09T00:44:12.283Z,24.12
2022-12-09T00:45:14.158Z,24.12
2022-12-09T00:46:17.075Z,24.11
2022-12-09T00:47:18.809Z,24.11
2022-12-09T00:48:20.877Z,24.11
2022-12-09T00:49:22.506Z,24.10
2022-12-09T00:50:24.397Z,24.11
2022-12-09T00:51:26.112Z,24.09
2022-12-09T00:52:27.818Z,24.08
2022-12-09T00:53:29.424Z,24.08
2022-12-09T00:54:31.009Z,24.07
2022-12-09T00:55:32.648Z,24.08
2022-12-09T00:56:34.320Z,24.07
2022-12-09T00:57:36.031Z,24.07
2022-12-09T00:58:37.770Z,24.07
2022-12-09T00:59:39.530Z,24.07
2022-12-09T01:00:41.918Z,24.08
2022-12-09T01:01:43.908Z,24.07
2022-12-09T01:02:45.856Z,24.07
2022-12-09T01:03:47.762Z,24.06
2022-12-09T01:04:52.808Z,24.04
2022-12-09T01:05:55.074Z,24.06
2022-12-09T01:06:56.657Z,24.06
2022-12-09T01:07:58.496Z,24.05
2022-12-09T01:09:00.238Z,24.05
2022-12-09T01:10:01.948Z,24.05
2022-12-09T01:11:21.532Z,24.01
2022-12-09T01:12:23.225Z,24.05
2022-12-09T01:13:24.920Z,24.04
2022-12-09T01:14:26.515Z,24.03
2022-12-09T01:15:28.377Z,24.03
2022-12-09T01:16:32.841Z,24.01
2022-12-09T01:17:37.383Z,24.03
2022-12-09T01:18:38.999Z,24.02
2022-12-09T01:19:41.007Z,24.01
2022-12-09T01:20:42.792Z,24.00
2022-12-09T01:21:44.455Z,24.00
2022-12-09T01:22:47.071Z,24.01
2022-12-09T01:23:48.904Z,24.01
2022-12-09T01:24:50.821Z,24.01
2022-12-09T01:25:52.614Z,24.00
2022-12-09T01:26:54.226Z,24.01
2022-12-09T01:27:56.043Z,23.99
2022-12-09T01:28:57.867Z,24.01
2022-12-09T01:29:59.543Z,24.00
2022-12-09T01:31:10.153Z,23.98
2022-12-09T01:32:11.915Z,24.01
2022-12-09T01:33:13.539Z,24.02
2022-12-09T01:34:15.209Z,24.02
2022-12-09T01:35:16.920Z,24.01
2022-12-09T01:36:24.111Z,24.00
2022-12-09T01:37:26.550Z,24.03
2022-12-09T01:38:28.317Z,24.01
2022-12-09T01:39:29.885Z,24.00
2022-12-09T01:40:31.556Z,23.99
2022-12-09T01:41:34.444Z,23.99
2022-12-09T01:42:36.283Z,24.00
2022-12-09T01:43:39.375Z,24.00
2022-12-09T01:45:19.802Z,23.97
2022-12-09T01:46:21.697Z,24.00
2022-12-09T01:47:23.681Z,23.97
2022-12-09T01:48:32.293Z,23.97
2022-12-09T01:49:43.330Z,23.96
2022-12-09T01:50:55.578Z,24.00
2022-12-09T01:52:10.945Z,23.96
2022-12-09T01:53:14.754Z,23.98
2022-12-09T01:54:16.944Z,23.98
2022-12-09T01:55:19.069Z,23.96
2022-12-09T01:56:27.193Z,23.94
2022-12-09T01:57:29.028Z,23.97
2022-12-09T01:58:31.121Z,23.96
2022-12-09T01:59:32.963Z,23.95
2022-12-09T02:00:34.753Z,23.97
2022-12-09T02:01:37.566Z,23.95
2022-12-09T02:02:41.834Z,23.95
2022-12-09T02:03:43.923Z,23.95
2022-12-09T02:04:49.726Z,23.94
2022-12-09T02:05:51.886Z,23.94
2022-12-09T02:06:54.201Z,23.96
2022-12-09T02:07:56.481Z,23.92
2022-12-09T02:08:59.124Z,23.95
2022-12-09T02:10:02.511Z,23.96
2022-12-09T02:11:22.338Z,23.91
2022-12-09T02:12:53.931Z,23.92
2022-12-09T02:14:19.806Z,23.93
2022-12-09T02:15:29.780Z,23.97
2022-12-09T02:16:39.136Z,23.93
2022-12-09T02:17:55.806Z,23.92
2022-12-09T02:19:43.350Z,23.90
2022-12-09T02:21:01.239Z,23.90
2022-12-09T02:22:02.955Z,23.97
2022-12-09T02:23:19.474Z,23.96
2022-12-09T02:24:36.889Z,23.89
2022-12-09T02:25:57.555Z,23.91
2022-12-09T02:27:10.601Z,23.90
2022-12-09T02:28:48.996Z,23.86
2022-12-09T02:30:21.449Z,23.85
2022-12-09T02:31:44.047Z,23.84
2022-12-09T02:33:07.113Z,23.82
2022-12-09T02:34:15.337Z,23.83
2022-12-09T02:35:37.787Z,23.87
2022-12-09T02:37:03.908Z,23.84
2022-12-09T02:38:12.000Z,23.86
2022-12-09T02:39:13.982Z,23.87
2022-12-09T02:40:21.865Z,23.85
2022-12-09T02:41:28.105Z,23.84
2022-12-09T02:42:34.660Z,23.86
2022-12-09T02:43:46.677Z,23.86
2022-12-09T02:44:52.639Z,23.88
2022-12-09T02:45:56.726Z,23.89
2022-12-09T02:46:59.710Z,23.88
2022-12-09T02:48:02.876Z,23.88
2022-12-09T02:49:05.495Z,23.89
2022-12-09T02:50:11.993Z,23.86
2022-12-09T02:51:18.151Z,23.87
2022-12-09T02:52:21.742Z,23.89
2022-12-09T02:53:25.862Z,23.90
2022-12-09T02:54:30.116Z,23.90
2022-12-09T02:55:33.725Z,23.90
2022-12-09T02:56:35.900Z,23.91
2022-12-09T02:57:39.438Z,23.90
2022-12-09T02:58:41.341Z,23.93
2022-12-09T02:59:42.973Z,23.93
2022-12-09T03:00:44.962Z,23.93
2022-12-09T03:02:00.770Z,23.89
2022-12-09T03:03:05.095Z,23.92
2022-12-09T03:04:09.090Z,23.94
2022-12-09T03:05:26.114Z,23.87
2022-12-09T03:06:35.436Z,23.93
2022-12-09T03:07:55.293Z,23.88
2022-12-09T03:09:10.559Z,23.87
2022-12-09T03:10:25.421Z,23.87
2022-12-09T03:11:28.048Z,23.91
2022-12-09T03:12:32.907Z,23.91
2022-12-09T03:13:37.214Z,23.90
2022-12-09T03:14:44.739Z,23.89
2022-12-09T03:15:53.186Z,23.90
2022-12-09T03:17:08.281Z,23.89
2022-12-09T03:18:15.223Z,23.91
2022-12-09T03:19:35.128Z,23.86
2022-12-09T03:20:41.478Z,23.91
2022-12-09T03:21:47.262Z,23.91
2022-12-09T03:22:51.930Z,23.94
2022-12-09T03:23:56.416Z,23.90
2022-12-09T03:25:10.378Z,23.86
2022-12-09T03:26:15.716Z,23.91
2022-12-09T03:27:26.700Z,23.89
2022-12-09T03:28:41.436Z,23.88
2022-12-09T03:29:47.000Z,23.91
2022-12-09T03:30:49.325Z,23.92
2022-12-09T03:31:52.594Z,23.91
2022-12-09T03:32:55.999Z,23.92
2022-12-09T03:34:02.898Z,23.91
2022-12-09T03:35:29.945Z,23.86
2022-12-09T03:36:37.405Z,23.95
2022-12-09T03:37:42.710Z,23.93
2022-12-09T03:38:48.391Z,23.92
2022-12-09T03:39:52.124Z,23.91
2022-12-09T03:41:00.871Z,23.89
2022-12-09T03:42:09.805Z,23.91
2022-12-09T03:43:16.287Z,23.91
2022-12-09T03:44:21.973Z,23.91
2022-12-09T03:45:24.942Z,23.91
2022-12-09T03:46:29.291Z,23.91
2022-12-09T03:47:31.204Z,23.91
2022-12-09T03:48:33.181Z,23.90
2022-12-09T03:49:35.528Z,23.90
2022-12-09T03:51:00.529Z,23.84
2022-12-09T03:52:10.598Z,23.88
2022-12-09T03:53:26.135Z,23.86
2022-12-09T03:54:50.778Z,23.85
2022-12-09T03:56:01.350Z,23.89
2022-12-09T03:57:04.153Z,23.91
2022-12-09T03:58:08.373Z,23.91
2022-12-09T03:59:13.156Z,23.91
2022-12-09T04:00:15.659Z,23.92
2022-12-09T04:01:18.514Z,23.90
2022-12-09T04:02:20.843Z,23.90
2022-12-09T04:03:22.783Z,23.90
2022-12-09T04:04:24.529Z,23.90
2022-12-09T04:05:26.441Z,23.92
2022-12-09T04:06:28.303Z,23.89
2022-12-09T04:07:30.233Z,23.90
2022-12-09T04:08:32.011Z,23.89
2022-12-09T04:09:33.829Z,23.89
2022-12-09T04:10:35.879Z,23.87
2022-12-09T04:11:37.510Z,23.88
2022-12-09T04:12:40.403Z,23.88
2022-12-09T04:13:42.216Z,23.88
2022-12-09T04:14:44.262Z,23.87
2022-12-09T04:15:46.075Z,23.85
2022-12-09T04:16:48.213Z,23.86
2022-12-09T04:17:49.960Z,23.86
2022-12-09T04:18:51.657Z,23.84
2022-12-09T04:19:53.258Z,23.86
2022-12-09T04:20:55.034Z,23.86
2022-12-09T04:21:56.641Z,23.87
2022-12-09T04:22:58.580Z,23.87
2022-12-09T04:24:00.307Z,23.86
2022-12-09T04:25:02.235Z,23.85
2022-12-09T04:26:04.930Z,23.87
2022-12-09T04:27:06.508Z,23.88
2022-12-09T04:28:08.146Z,23.88
2022-12-09T04:29:11.488Z,23.87
2022-12-09T04:30:13.672Z,23.87
2022-12-09T04:31:18.105Z,23.88
2022-12-09T04:32:20.263Z,23.88
2022-12-09T04:33:22.221Z,23.87
2022-12-09T04:34:23.913Z,23.89
2022-12-09T04:35:25.718Z,23.87
2022-12-09T04:36:27.368Z,23.87
2022-12-09T04:37:28.975Z,23.85
2022-12-09T04:38:30.972Z,23.87
2022-12-09T04:39:32.952Z,23.87
2022-12-09T04:40:34.873Z,23.86
2022-12-09T04:41:36.934Z,23.85
2022-12-09T04:42:39.001Z,23.87
2022-12-09T04:43:41.050Z,23.86
2022-12-09T04:44:42.964Z,23.85
2022-12-09T04:45:44.903Z,23.85
2022-12-09T04:46:46.778Z,23.84
2022-12-09T04:47:48.592Z,23.84
2022-12-09T04:48:50.522Z,23.85
2022-12-09T04:49:52.389Z,23.85
2022-12-09T04:50:54.203Z,23.84
2022-12-09T04:51:56.228Z,23.86
2022-12-09T04:52:57.895Z,23.85
2022-12-09T04:53:59.936Z,23.85
2022-12-09T04:55:01.565Z,23.86
2022-12-09T04:56:07.226Z,23.85
2022-12-09T04:57:09.118Z,23.86
2022-12-09T04:58:10.926Z,23.86
2022-12-09T04:59:12.861Z,23.86
2022-12-09T05:00:15.375Z,23.86
2022-12-09T05:01:24.801Z,23.87
2022-12-09T05:02:30.113Z,23.86
2022-12-09T05:03:31.882Z,23.86
2022-12-09T05:04:33.965Z,23.85
2022-12-09T05:05:40.940Z,23.84
2022-12-09T05:06:43.278Z,23.86
2022-12-09T05:07:45.075Z,23.85
2022-12-09T05:08:47.908Z,23.85
2022-12-09T05:09:49.677Z,23.86
2022-12-09T05:10:51.441Z,23.86
2022-12-09T05:11:54.274Z,23.85
2022-12-09T05:12:56.162Z,23.85
2022-12-09T05:13:57.897Z,23.86
2022-12-09T05:15:00.106Z,23.84
2022-12-09T05:16:12.168Z,23.84
2022-12-09T05:17:17.413Z,23.86
2022-12-09T05:18:19.217Z,23.84
2022-12-09T05:19:21.843Z,23.84
2022-12-09T05:20:28.077Z,23.85
2022-12-09T05:21:30.063Z,23.84
2022-12-09T05:22:31.992Z,23.85
2022-12-09T05:23:34.566Z,23.85
2022-12-09T05:24:36.486Z,23.85
2022-12-09T05:25:38.477Z,23.84
2022-12-09T05:26:40.545Z,23.84
2022-12-09T05:27:42.323Z,23.86
2022-12-09T05:28:44.428Z,23.85
2022-12-09T05:29:47.069Z,23.83
2022-12-09T05:30:49.136Z,23.83
2022-12-09T05:31:51.782Z,23.84
2022-12-09T05:32:53.829Z,23.85
2022-12-09T05:33:56.356Z,23.84
2022-12-09T05:34:58.074Z,23.83
2022-12-09T05:36:00.104Z,23.81
2022-12-09T05:37:01.867Z,23.83
2022-12-09T05:38:03.915Z,23.84
2022-12-09T05:39:05.564Z,23.85
2022-12-09T05:40:08.204Z,23.85
2022-12-09T05:41:10.938Z,23.82
2022-12-09T05:42:12.745Z,23.82
2022-12-09T05:43:14.998Z,23.82
2022-12-09T05:44:17.067Z,23.84
2022-12-09T05:45:18.661Z,23.86
2022-12-09T05:46:20.723Z,23.84
2022-12-09T05:47:22.710Z,23.85
2022-12-09T05:48:24.602Z,23.84
2022-12-09T05:49:26.895Z,23.82
2022-12-09T05:50:28.832Z,23.83
2022-12-09T05:51:30.750Z,23.81
2022-12-09T05:52:35.236Z,23.81
2022-12-09T05:53:37.332Z,23.81
2022-12-09T05:54:39.348Z,23.84
2022-12-09T05:55:42.066Z,23.83
2022-12-09T05:56:48.065Z,23.82
2022-12-09T05:57:51.012Z,23.82
2022-12-09T05:58:53.385Z,23.82
2022-12-09T05:59:55.292Z,23.83
2022-12-09T06:01:04.232Z,23.82
2022-12-09T06:02:09.915Z,23.84
2022-12-09T06:03:13.139Z,23.84
2022-12-09T06:04:15.493Z,23.83
2022-12-09T06:05:18.517Z,23.82
2022-12-09T06:06:23.205Z,23.82
2022-12-09T06:07:25.363Z,23.83
2022-12-09T06:08:27.480Z,23.82
2022-12-09T06:09:29.302Z,23.81
2022-12-09T06:10:31.755Z,23.81
2022-12-09T06:11:34.139Z,23.80
2022-12-09T06:12:36.248Z,23.80
2022-12-09T06:13:38.301Z,23.81
2022-12-09T06:14:39.955Z,23.81
2022-12-09T06:15:41.814Z,23.80
2022-12-09T06:16:44.048Z,23.82
2022-12-09T06:17:46.038Z,23.81
2022-12-09T06:18:48.882Z,23.80
2022-12-09T06:19:51.162Z,23.81
2022-12-09T06:20:52.982Z,23.81
2022-12-09T06:21:54.872Z,23.79
2022-12-09T06:22:57.018Z,23.80
2022-12-09T06:23:58.706Z,23.81
2022-12-09T06:25:00.876Z,23.82
2022-12-09T06:26:03.032Z,23.82
2022-12-09T06:27:05.245Z,23.82
2022-12-09T06:28:07.006Z,23.82
2022-12-09T06:29:09.345Z,23.81
2022-12-09T06:30:11.376Z,23.83
2022-12-09T06:31:13.895Z,23.82
2022-12-09T06:32:16.516Z,23.85
2022-12-09T06:33:52.392Z,23.85
2022-12-09T06:34:39.905Z,23.85
2022-12-09T06:35:41.732Z,23.87
2022-12-09T06:36:43.579Z,23.89
2022-12-09T06:37:45.389Z,23.90
2022-12-09T06:38:47.288Z,23.90
2022-12-09T06:39:49.169Z,23.88
2022-12-09T06:40:50.868Z,23.91
2022-12-09T06:41:52.801Z,23.92
2022-12-09T06:42:54.882Z,23.91
2022-12-09T06:44:00.249Z,23.90
2022-12-09T06:45:02.525Z,23.94
2022-12-09T06:46:21.117Z,23.95
2022-12-09T06:47:22.982Z,23.97
2022-12-09T06:48:25.701Z,23.97
2022-12-09T06:49:27.755Z,23.97
2022-12-09T06:50:29.588Z,23.96
2022-12-09T06:51:32.022Z,23.95
2022-12-09T06:52:33.743Z,23.96
2022-12-09T06:53:35.406Z,23.97
2022-12-09T06:54:37.113Z,23.98
2022-12-09T06:55:39.083Z,24.00
2022-12-09T06:56:41.196Z,24.00
2022-12-09T06:57:43.200Z,23.99
2022-12-09T06:58:46.567Z,23.99
2022-12-09T06:59:48.815Z,23.99
2022-12-09T07:00:51.178Z,23.99
2022-12-09T07:01:53.457Z,23.98
2022-12-09T07:02:55.599Z,23.98
2022-12-09T07:03:58.342Z,23.99
2022-12-09T07:05:00.939Z,24.00
2022-12-09T07:06:03.531Z,24.01
2022-12-09T07:07:05.646Z,23.99
2022-12-09T07:08:07.759Z,24.01
2022-12-09T07:09:19.686Z,24.00
2022-12-09T07:10:21.553Z,24.03
2022-12-09T07:11:23.650Z,24.03
2022-12-09T07:12:25.511Z,24.04
2022-12-09T07:13:27.102Z,24.05
2022-12-09T07:14:28.883Z,24.03
2022-12-09T07:15:30.960Z,24.03
2022-12-09T07:16:32.876Z,24.03
2022-12-09T07:17:34.712Z,24.04
2022-12-09T07:18:36.661Z,24.05
2022-12-09T07:19:38.725Z,24.06
2022-12-09T07:20:40.438Z,24.06
2022-12-09T07:21:42.408Z,24.05
2022-12-09T07:22:44.273Z,24.06
2022-12-09T07:23:46.640Z,24.07
2022-12-09T07:24:48.260Z,24.08
2022-12-09T07:25:57.784Z,24.07
2022-12-09T07:27:04.727Z,24.08
2022-12-09T07:28:10.288Z,24.11
2022-12-09T07:29:12.192Z,24.09
2022-12-09T07:30:14.275Z,24.10
2022-12-09T07:31:27.690Z,24.06
2022-12-09T07:32:29.787Z,24.09
2022-12-09T07:33:31.916Z,24.09
2022-12-09T07:34:34.083Z,24.09
2022-12-09T07:35:36.238Z,24.08
2022-12-09T07:36:38.243Z,24.10
2022-12-09T07:37:39.903Z,24.12
2022-12-09T07:38:41.603Z,24.10
2022-12-09T07:39:43.669Z,24.09
2022-12-09T07:40:45.523Z,24.10
2022-12-09T07:41:59.099Z,24.12
2022-12-09T07:43:00.894Z,24.12
2022-12-09T07:44:03.304Z,24.16
2022-12-09T07:45:06.277Z,24.13
2022-12-09T07:46:09.142Z,24.12
2022-12-09T07:47:11.065Z,24.12
2022-12-09T07:48:12.927Z,24.11
2022-12-09T07:49:15.322Z,24.11
2022-12-09T07:50:17.208Z,24.10
2022-12-09T07:51:19.324Z,24.11
2022-12-09T07:52:21.117Z,24.11
2022-12-09T07:53:22.976Z,24.11
2022-12-09T07:54:24.695Z,24.11
2022-12-09T07:55:26.293Z,24.11
2022-12-09T07:56:29.222Z,24.11
2022-12-09T07:57:31.123Z,24.11
2022-12-09T07:58:34.238Z,24.10
2022-12-09T07:59:36.076Z,24.12
2022-12-09T08:00:37.906Z,24.12
2022-12-09T08:01:40.117Z,24.12
2022-12-09T08:02:42.152Z,24.11
2022-12-09T08:03:45.377Z,24.10
2022-12-09T08:04:47.672Z,24.11
2022-12-09T08:05:53.689Z,24.10
2022-12-09T08:06:55.995Z,24.12
2022-12-09T08:07:58.055Z,24.12
2022-12-09T08:09:02.255Z,24.13
2022-12-09T08:10:05.253Z,24.15
2022-12-09T08:11:08.507Z,24.15
2022-12-09T08:12:12.672Z,24.15
2022-12-09T08:13:14.753Z,24.15
2022-12-09T08:14:16.404Z,24.15
2022-12-09T08:15:20.159Z,24.15
2022-12-09T08:16:23.137Z,24.14
2022-12-09T08:17:26.910Z,24.15
2022-12-09T08:18:29.056Z,24.19
2022-12-09T08:19:31.313Z,24.17
2022-12-09T08:20:33.587Z,24.17
2022-12-09T08:21:35.903Z,24.15
2022-12-09T08:22:38.346Z,24.14
2022-12-09T08:23:40.470Z,24.18
2022-12-09T08:24:42.583Z,24.17
2022-12-09T08:25:44.656Z,24.19
2022-12-09T08:26:46.534Z,24.21
2022-12-09T08:27:48.556Z,24.19
2022-12-09T08:28:51.135Z,24.19
2022-12-09T08:29:52.897Z,24.19
2022-12-09T08:30:54.865Z,24.20
2022-12-09T08:31:56.832Z,24.22
2022-12-09T08:32:58.989Z,24.21
2022-12-09T08:34:03.934Z,24.22
2022-12-09T08:35:06.512Z,24.21
2022-12-09T08:36:17.328Z,24.19
2022-12-09T08:37:19.443Z,24.24
2022-12-09T08:38:21.122Z,24.24
2022-12-09T08:39:22.734Z,24.23
2022-12-09T08:40:24.599Z,24.23
2022-12-09T08:41:37.522Z,24.19
2022-12-09T08:42:39.916Z,24.16
2022-12-09T08:43:43.060Z,24.13
2022-12-09T08:44:45.294Z,24.13
2022-12-09T08:45:47.083Z,24.11
2022-12-09T08:46:52.049Z,24.11
2022-12-09T08:47:54.158Z,24.09
2022-12-09T08:48:56.520Z,24.09
2022-12-09T08:49:58.467Z,24.08
2022-12-09T08:51:00.736Z,24.08
2022-12-09T08:52:02.592Z,24.09
2022-12-09T08:53:04.651Z,24.08
2022-12-09T08:54:06.903Z,24.08
2022-12-09T08:55:09.493Z,24.07
2022-12-09T08:56:12.884Z,24.08
2022-12-09T08:57:14.813Z,24.09
2022-12-09T08:58:17.377Z,24.10
2022-12-09T08:59:19.488Z,24.12
2022-12-09T09:00:21.622Z,24.11
2022-12-09T09:01:32.676Z,24.10
2022-12-09T09:02:35.426Z,24.11
2022-12-09T09:03:37.467Z,24.12
2022-12-09T09:04:39.987Z,24.13
2022-12-09T09:05:42.374Z,24.14
2022-12-09T09:06:46.297Z,24.14
2022-12-09T09:07:48.608Z,24.15
2022-12-09T09:08:50.437Z,24.15
2022-12-09T09:09:52.304Z,24.12
2022-12-09T09:10:55.071Z,24.12
2022-12-09T09:11:57.250Z,24.11
2022-12-09T09:12:58.950Z,24.15
2022-12-09T09:14:04.224Z,24.13
2022-12-09T09:15:07.504Z,24.15
2022-12-09T09:16:15.657Z,24.11
2022-12-09T09:17:17.393Z,24.13
2022-12-09T09:18:19.749Z,24.14
2022-12-09T09:19:25.744Z,24.12
2022-12-09T09:20:27.593Z,24.14
2022-12-09T09:21:29.914Z,24.16
2022-12-09T09:22:31.885Z,24.15
2022-12-09T09:23:34.031Z,24.13
2022-12-09T09:24:35.840Z,24.12
2022-12-09T09:25:42.186Z,24.10
2022-12-09T09:26:44.964Z,24.14
2022-12-09T09:27:47.125Z,24.14
2022-12-09T09:28:50.231Z,24.17
2022-12-09T09:29:52.347Z,24.16
2022-12-09T09:31:05.671Z,24.15
2022-12-09T09:32:09.245Z,24.20
2022-12-09T09:33:11.375Z,24.21
2022-12-09T09:34:13.267Z,24.21
2022-12-09T09:35:15.589Z,24.23
2022-12-09T09:36:24.894Z,24.19
2022-12-09T09:37:27.103Z,24.22
2022-12-09T09:38:29.552Z,24.22
2022-12-09T09:39:31.434Z,24.23
2022-12-09T09:40:34.584Z,24.22
2022-12-09T09:41:42.641Z,24.20
2022-12-09T09:42:49.202Z,24.23
2022-12-09T09:43:51.802Z,24.24
2022-12-09T09:44:55.594Z,24.24
2022-12-09T09:45:58.770Z,24.24
2022-12-09T09:47:04.465Z,24.25
2022-12-09T09:48:06.711Z,24.26
2022-12-09T09:49:19.043Z,24.24
2022-12-09T09:50:44.493Z,24.24
2022-12-09T09:51:47.804Z,24.28
2022-12-09T09:52:52.580Z,24.27
2022-12-09T09:53:54.868Z,24.28
2022-12-09T09:54:57.902Z,24.28
2022-12-09T09:56:18.482Z,24.28
2022-12-09T09:57:34.779Z,24.23
2022-12-09T09:58:36.907Z,24.28
2022-12-09T10:00:14.340Z,24.26
2022-12-09T10:01:18.814Z,24.29
2022-12-09T10:02:54.828Z,24.25
2022-12-09T10:04:02.973Z,24.24
2022-12-09T10:05:11.299Z,24.24
2022-12-09T10:06:28.144Z,24.20
2022-12-09T10:07:54.679Z,24.17
2022-12-09T10:09:03.755Z,24.23
2022-12-09T10:10:15.079Z,24.19
2022-12-09T10:11:23.783Z,24.20
2022-12-09T10:12:51.590Z,24.15
2022-12-09T10:13:56.769Z,24.19
2022-12-09T10:15:15.139Z,24.17
2022-12-09T10:16:29.990Z,24.19
2022-12-09T10:17:40.174Z,24.20
2022-12-09T10:19:08.092Z,24.22
2022-12-09T10:20:17.429Z,24.20
2022-12-09T10:21:21.170Z,24.21
2022-12-09T10:22:27.169Z,24.20
2022-12-09T10:23:32.037Z,24.15
2022-12-09T10:24:39.992Z,24.21
2022-12-09T10:25:50.891Z,24.16
2022-12-09T10:27:08.320Z,24.20
2022-12-09T10:28:22.289Z,24.23
2022-12-09T10:29:34.281Z,24.25
2022-12-09T10:30:43.603Z,24.30
2022-12-09T10:31:45.934Z,24.33
2022-12-09T10:32:48.459Z,24.35
2022-12-09T10:33:50.564Z,24.35
2022-12-09T10:34:52.563Z,24.35
2022-12-09T10:35:54.979Z,24.35
2022-12-09T10:36:57.219Z,24.34
2022-12-09T10:38:09.676Z,24.32
2022-12-09T10:39:22.017Z,24.30
2022-12-09T10:40:57.078Z,24.31
2022-12-09T10:42:18.873Z,24.39
2022-12-09T10:43:41.013Z,24.34
2022-12-09T10:44:43.726Z,24.40
2022-12-09T10:47:26.531Z,24.38
2022-12-09T10:48:37.658Z,24.40
2022-12-09T10:49:42.993Z,24.43
2022-12-09T10:50:48.452Z,24.45
2022-12-09T10:51:52.599Z,24.46
2022-12-09T10:52:55.481Z,24.44
2022-12-09T10:54:05.056Z,24.40
2022-12-09T10:55:07.402Z,24.41
2022-12-09T10:56:09.269Z,24.39
2022-12-09T10:57:13.839Z,24.34
2022-12-09T10:58:19.758Z,24.34
2022-12-09T10:59:25.766Z,24.32
2022-12-09T11:00:34.413Z,24.30
2022-12-09T11:01:48.086Z,24.24
2022-12-09T11:02:54.897Z,24.26
2022-12-09T11:03:57.835Z,24.28
2022-12-09T11:05:28.507Z,24.21
2022-12-09T11:06:39.959Z,24.21
2022-12-09T11:07:48.579Z,24.23
2022-12-09T11:08:54.570Z,24.24
2022-12-09T11:09:56.470Z,24.24
2022-12-09T11:10:58.563Z,24.23
2022-12-09T11:12:02.087Z,24.21
2022-12-09T11:13:07.410Z,24.21
2022-12-09T11:14:31.299Z,24.15
2022-12-09T11:15:43.810Z,24.16
2022-12-09T11:16:45.746Z,24.20
2022-12-09T11:18:25.682Z,24.13
2022-12-09T11:19:36.247Z,24.15
2022-12-09T11:20:40.120Z,24.18
2022-12-09T11:21:42.949Z,24.16
2022-12-09T11:22:46.070Z,24.13
2022-12-09T11:24:02.657Z,24.11
2022-12-09T11:25:43.963Z,24.12
2022-12-09T11:26:45.842Z,24.19
2022-12-09T11:28:00.650Z,24.15
2022-12-09T11:29:18.531Z,24.14
2022-12-09T11:30:57.853Z,24.14
2022-12-09T11:32:02.469Z,24.20
2022-12-09T11:33:14.312Z,24.18
2022-12-09T11:34:23.238Z,24.17
2022-12-09T11:35:31.329Z,24.12
2022-12-09T11:36:36.977Z,24.15
2022-12-09T11:37:40.880Z,24.16
2022-12-09T11:38:45.608Z,24.14
2022-12-09T11:39:52.682Z,24.15
2022-12-09T11:41:09.439Z,24.11
2022-12-09T11:42:18.814Z,24.11
2022-12-09T11:43:21.488Z,24.11
2022-12-09T11:44:27.373Z,24.09
2022-12-09T11:45:33.611Z,24.12
2022-12-09T11:46:35.311Z,24.12
2022-12-09T11:48:13.923Z,24.13
2022-12-09T11:49:06.268Z,24.15
2022-12-09T11:50:19.442Z,24.11
2022-12-09T11:51:23.989Z,24.14
2022-12-09T11:52:29.006Z,24.11
2022-12-09T11:53:34.721Z,24.11
2022-12-09T11:55:03.516Z,24.09
2022-12-09T11:56:15.752Z,24.15
2022-12-09T11:57:43.190Z,24.10
2022-12-09T11:58:56.535Z,24.10
2022-12-09T12:00:02.776Z,24.11
2022-12-09T12:01:11.797Z,24.09
2022-12-09T12:02:34.173Z,24.08
2022-12-09T12:03:57.953Z,24.13
2022-12-09T12:05:21.681Z,24.09
2022-12-09T12:06:28.110Z,24.12
2022-12-09T12:07:43.846Z,24.09
2022-12-09T12:08:52.996Z,24.10
2022-12-09T12:09:57.619Z,24.12
2022-12-09T12:11:15.339Z,24.08
2022-12-09T12:12:20.427Z,24.08
2022-12-09T12:13:24.746Z,24.07
2022-12-09T12:14:29.367Z,24.08
2022-12-09T12:15:49.061Z,24.06
2022-12-09T12:16:59.609Z,24.10
2022-12-09T12:18:05.157Z,24.09
2022-12-09T12:19:25.405Z,24.06
2022-12-09T12:21:08.713Z,24.05
2022-12-09T12:22:52.985Z,23.94
2022-12-09T12:24:31.598Z,23.91
2022-12-09T12:25:44.833Z,23.95
2022-12-09T12:27:25.343Z,23.96
2022-12-09T12:28:26.830Z,24.04
2022-12-09T12:29:54.153Z,24.01
2022-12-09T12:31:31.883Z,24.03
2022-12-09T12:32:39.375Z,24.05
2022-12-09T12:34:24.046Z,24.00
2022-12-09T12:35:35.320Z,24.03
2022-12-09T12:37:02.788Z,24.01
2022-12-09T12:38:30.551Z,24.02
2022-12-09T12:40:03.061Z,23.99
2022-12-09T12:41:10.406Z,24.00
2022-12-09T12:43:09.233Z,23.96
2022-12-09T12:44:47.749Z,23.97
2022-12-09T12:46:16.198Z,23.97
2022-12-09T12:47:27.986Z,23.94
2022-12-09T12:49:01.887Z,23.94
2022-12-09T12:50:20.427Z,23.94
2022-12-09T12:51:43.091Z,23.98
2022-12-09T12:53:06.013Z,23.94
2022-12-09T12:54:31.850Z,23.96
2022-12-09T12:56:00.956Z,23.96
2022-12-09T12:57:27.024Z,23.97
2022-12-09T12:58:50.131Z,23.98
2022-12-09T13:00:08.098Z,23.94
2022-12-09T13:01:15.741Z,23.97
2022-12-09T13:02:45.763Z,23.92
2022-12-09T13:04:12.140Z,23.94
2022-12-09T13:05:21.375Z,23.99
2022-12-09T13:06:41.386Z,23.96
2022-12-09T13:08:06.084Z,23.96
2022-12-09T13:09:23.099Z,23.97
2022-12-09T13:10:36.375Z,23.97
2022-12-09T13:12:04.465Z,24.00
2022-12-09T13:13:22.509Z,24.01
2022-12-09T13:14:32.127Z,24.03
2022-12-09T13:15:37.254Z,24.02
2022-12-09T13:16:41.754Z,24.00
2022-12-09T13:17:46.997Z,23.98
2022-12-09T13:18:49.562Z,24.01
2022-12-09T13:19:55.051Z,24.00
2022-12-09T13:20:58.541Z,24.00
2022-12-09T13:22:00.675Z,24.02
2022-12-09T13:23:20.758Z,24.02
2022-12-09T13:24:32.828Z,23.98
2022-12-09T13:25:34.410Z,24.02
2022-12-09T13:26:46.709Z,23.99
2022-12-09T13:28:13.029Z,23.98
2022-12-09T13:29:22.006Z,24.02
2022-12-09T13:30:30.706Z,24.00
2022-12-09T13:31:35.756Z,24.01
2022-12-09T13:32:43.253Z,24.04
2022-12-09T13:33:52.467Z,23.99
2022-12-09T13:35:01.454Z,24.01
2022-12-09T13:36:21.522Z,23.98
2022-12-09T13:37:41.946Z,23.95
2022-12-09T13:38:43.815Z,24.00
2022-12-09T13:39:51.427Z,23.96
2022-12-09T13:40:53.056Z,24.01
2022-12-09T13:42:13.234Z,23.98
2022-12-09T13:43:24.777Z,23.96
2022-12-09T13:44:31.744Z,23.98
2022-12-09T13:45:36.145Z,24.01
2022-12-09T13:46:38.418Z,24.02
2022-12-09T13:47:40.253Z,23.99
2022-12-09T13:48:44.865Z,23.97
2022-12-09T13:50:00.346Z,23.96
2022-12-09T13:51:03.706Z,24.01
2022-12-09T13:52:05.728Z,24.01
2022-12-09T13:53:19.597Z,23.95
2022-12-09T13:54:25.156Z,23.99
2022-12-09T13:55:29.347Z,24.02
2022-12-09T13:56:34.577Z,23.99
2022-12-09T13:57:48.012Z,23.95
2022-12-09T13:59:11.139Z,23.99
2022-12-09T14:00:17.803Z,23.99
2022-12-09T14:01:47.570Z,23.98
2022-12-09T14:02:58.803Z,23.97
2022-12-09T14:04:12.348Z,23.99
2022-12-09T14:05:26.144Z,23.93
2022-12-09T14:06:45.158Z,23.94
2022-12-09T14:07:54.191Z,23.95
2022-12-09T14:09:01.564Z,23.94
2022-12-09T14:10:05.359Z,23.97
2022-12-09T14:11:52.114Z,23.90
2022-12-09T14:12:57.326Z,23.94
2022-12-09T14:14:23.631Z,23.89
2022-12-09T14:15:25.179Z,23.94
2022-12-09T14:16:26.718Z,23.94
2022-12-09T14:17:30.898Z,23.91
2022-12-09T14:18:33.575Z,23.91
2022-12-09T14:19:51.719Z,23.87
2022-12-09T14:21:18.145Z,23.89
2022-12-09T14:22:20.213Z,23.92